sensor_id;sensor_type;location;lat;lon;timestamp;pressure;altitude;pressure_sealevel;temperature
78917;BMP280;68315;48.608;11.436;2023-06-10T00:01:41;96892.19;;;17.07
78917;BMP280;68315;48.608;11.436;2023-06-10T00:04:08;96898.91;;;17.04
78917;BMP280;68315;48.608;11.436;2023-06-10T00:06:33;96894.09;;;16.95
78917;BMP280;68315;48.608;11.436;2023-06-10T00:09:02;96895.13;;;16.90
78917;BMP280;68315;48.608;11.436;2023-06-10T00:11:29;96885.03;;;16.85
78917;BMP280;68315;48.608;11.436;2023-06-10T00:13:54;96891.91;;;16.84
78917;BMP280;68315;48.608;11.436;2023-06-10T00:16:20;96889.13;;;16.84
78917;BMP280;68315;48.608;11.436;2023-06-10T00:18:45;96886.03;;;16.80
78917;BMP280;68315;48.608;11.436;2023-06-10T00:21:12;96885.91;;;16.78
78917;BMP280;68315;48.608;11.436;2023-06-10T00:23:38;96887.66;;;16.74
78917;BMP280;68315;48.608;11.436;2023-06-10T00:26:03;96891.84;;;16.65
78917;BMP280;68315;48.608;11.436;2023-06-10T00:28:29;96889.50;;;16.52
78917;BMP280;68315;48.608;11.436;2023-06-10T00:30:55;96887.75;;;16.47
78917;BMP280;68315;48.608;11.436;2023-06-10T00:33:21;96886.28;;;16.46
78917;BMP280;68315;48.608;11.436;2023-06-10T00:35:46;96891.81;;;16.46
78917;BMP280;68315;48.608;11.436;2023-06-10T00:38:13;96881.63;;;16.39
78917;BMP280;68315;48.608;11.436;2023-06-10T00:40:39;96883.19;;;16.32
78917;BMP280;68315;48.608;11.436;2023-06-10T00:43:05;96883.19;;;16.32
78917;BMP280;68315;48.608;11.436;2023-06-10T00:45:31;96880.41;;;16.32
78917;BMP280;68315;48.608;11.436;2023-06-10T00:47:57;96891.19;;;16.28
78917;BMP280;68315;48.608;11.436;2023-06-10T00:50:22;96890.88;;;16.24
78917;BMP280;68315;48.608;11.436;2023-06-10T00:52:48;96886.50;;;16.21
78917;BMP280;68315;48.608;11.436;2023-06-10T00:55:15;96884.75;;;16.16
78917;BMP280;68315;48.608;11.436;2023-06-10T00:57:41;96881.22;;;16.16
78917;BMP280;68315;48.608;11.436;2023-06-10T01:00:10;96882.06;;;16.09
78917;BMP280;68315;48.608;11.436;2023-06-10T01:02:35;96884.69;;;16.07
78917;BMP280;68315;48.608;11.436;2023-06-10T01:05:01;96883.22;;;16.06
78917;BMP280;68315;48.608;11.436;2023-06-10T01:07:41;96887.88;;;16.03
78917;BMP280;68315;48.608;11.436;2023-06-10T01:10:43;96880.91;;;16.02
78917;BMP280;68315;48.608;11.436;2023-06-10T01:13:11;96880.00;;;16.00
78917;BMP280;68315;48.608;11.436;2023-06-10T01:15:38;96880.44;;;15.96
78917;BMP280;68315;48.608;11.436;2023-06-10T01:18:08;96887.84;;;15.94
78917;BMP280;68315;48.608;11.436;2023-06-10T01:20:35;96888.41;;;15.92
78917;BMP280;68315;48.608;11.436;2023-06-10T01:23:02;96888.25;;;15.90
78917;BMP280;68315;48.608;11.436;2023-06-10T01:25:29;96888.09;;;15.88
78917;BMP280;68315;48.608;11.436;2023-06-10T01:28:12;96885.88;;;15.87
78917;BMP280;68315;48.608;11.436;2023-06-10T01:33:10;96890.41;;;15.82
78917;BMP280;68315;48.608;11.436;2023-06-10T01:35:37;96895.63;;;15.78
78917;BMP280;68315;48.608;11.436;2023-06-10T01:38:04;96883.66;;;15.76
78917;BMP280;68315;48.608;11.436;2023-06-10T01:40:30;96887.72;;;15.75
78917;BMP280;68315;48.608;11.436;2023-06-10T01:42:57;96885.78;;;15.68
78917;BMP280;68315;48.608;11.436;2023-06-10T01:45:22;96885.56;;;15.56
78917;BMP280;68315;48.608;11.436;2023-06-10T01:47:47;96887.38;;;15.44
78917;BMP280;68315;48.608;11.436;2023-06-10T01:50:13;96894.97;;;15.43
78917;BMP280;68315;48.608;11.436;2023-06-10T01:52:38;96894.25;;;15.43
78917;BMP280;68315;48.608;11.436;2023-06-10T01:55:04;96889.59;;;15.46
78917;BMP280;68315;48.608;11.436;2023-06-10T01:57:29;96889.03;;;15.47
78917;BMP280;68315;48.608;11.436;2023-06-10T01:59:55;96896.63;;;15.47
78917;BMP280;68315;48.608;11.436;2023-06-10T02:02:20;96894.97;;;15.43
78917;BMP280;68315;48.608;11.436;2023-06-10T02:04:47;96896.28;;;15.43
78917;BMP280;68315;48.608;11.436;2023-06-10T02:07:12;96886.34;;;15.39
78917;BMP280;68315;48.608;11.436;2023-06-10T02:09:37;96895.94;;;15.38
78917;BMP280;68315;48.608;11.436;2023-06-10T02:12:03;96895.81;;;15.36
78917;BMP280;68315;48.608;11.436;2023-06-10T02:14:29;96898.41;;;15.34
78917;BMP280;68315;48.608;11.436;2023-06-10T02:16:54;96890.66;;;15.33
78917;BMP280;68315;48.608;11.436;2023-06-10T02:19:22;96894.56;;;15.30
78917;BMP280;68315;48.608;11.436;2023-06-10T02:21:47;96895.00;;;15.26
78917;BMP280;68315;48.608;11.436;2023-06-10T02:24:13;96902.09;;;15.20
78917;BMP280;68315;48.608;11.436;2023-06-10T02:26:38;96902.16;;;15.12
78917;BMP280;68315;48.608;11.436;2023-06-10T02:29:03;96895.25;;;15.04
78917;BMP280;68315;48.608;11.436;2023-06-10T02:31:29;96902.31;;;14.97
78917;BMP280;68315;48.608;11.436;2023-06-10T02:33:54;96905.09;;;14.97
78917;BMP280;68315;48.608;11.436;2023-06-10T02:36:21;96887.88;;;14.99
78917;BMP280;68315;48.608;11.436;2023-06-10T02:38:46;96898.41;;;15.00
78917;BMP280;68315;48.608;11.436;2023-06-10T02:41:12;96901.72;;;14.99
78917;BMP280;68315;48.608;11.436;2023-06-10T02:43:37;96903.81;;;14.98
78917;BMP280;68315;48.608;11.436;2023-06-10T02:46:02;96910.63;;;14.97
78917;BMP280;68315;48.608;11.436;2023-06-10T02:48:28;96902.56;;;14.92
78917;BMP280;68315;48.608;11.436;2023-06-10T02:50:53;96905.72;;;14.88
78917;BMP280;68315;48.608;11.436;2023-06-10T02:53:19;96914.75;;;14.89
78917;BMP280;68315;48.608;11.436;2023-06-10T02:55:44;96912.56;;;14.87
78917;BMP280;68315;48.608;11.436;2023-06-10T02:58:09;96916.78;;;14.88
78917;BMP280;68315;48.608;11.436;2023-06-10T03:00:35;96924.19;;;14.86
78917;BMP280;68315;48.608;11.436;2023-06-10T03:03:02;96916.28;;;14.82
78917;BMP280;68315;48.608;11.436;2023-06-10T03:05:28;96913.94;;;14.79
78917;BMP280;68315;48.608;11.436;2023-06-10T03:07:54;96907.34;;;14.74
78917;BMP280;68315;48.608;11.436;2023-06-10T03:10:20;96914.00;;;14.71
78917;BMP280;68315;48.608;11.436;2023-06-10T03:12:45;96906.28;;;14.70
78917;BMP280;68315;48.608;11.436;2023-06-10T03:15:10;96910.91;;;14.67
78917;BMP280;68315;48.608;11.436;2023-06-10T03:17:36;96910.72;;;14.65
78917;BMP280;68315;48.608;11.436;2023-06-10T03:20:02;96908.19;;;14.60
78917;BMP280;68315;48.608;11.436;2023-06-10T03:22:28;96915.59;;;14.57
78917;BMP280;68315;48.608;11.436;2023-06-10T03:24:53;96917.81;;;14.59
78917;BMP280;68315;48.608;11.436;2023-06-10T03:27:20;96915.19;;;14.61
78917;BMP280;68315;48.608;11.436;2023-06-10T03:29:45;96919.44;;;14.62
78917;BMP280;68315;48.608;11.436;2023-06-10T03:32:10;96919.97;;;14.60
78917;BMP280;68315;48.608;11.436;2023-06-10T03:34:36;96922.22;;;14.62
78917;BMP280;68315;48.608;11.436;2023-06-10T03:37:02;96927.16;;;14.63
78917;BMP280;68315;48.608;11.436;2023-06-10T03:39:28;96935.06;;;14.67
78917;BMP280;68315;48.608;11.436;2023-06-10T03:41:54;96927.66;;;14.69
78917;BMP280;68315;48.608;11.436;2023-06-10T03:44:20;96934.66;;;14.70
78917;BMP280;68315;48.608;11.436;2023-06-10T03:46:45;96930.59;;;14.71
78917;BMP280;68315;48.608;11.436;2023-06-10T03:49:11;96931.91;;;14.70
78917;BMP280;68315;48.608;11.436;2023-06-10T03:51:36;96924.91;;;14.69
78917;BMP280;68315;48.608;11.436;2023-06-10T03:54:02;96930.59;;;14.71
78917;BMP280;68315;48.608;11.436;2023-06-10T03:56:28;96930.22;;;14.75
78917;BMP280;68315;48.608;11.436;2023-06-10T03:58:53;96941.03;;;14.80
78917;BMP280;68315;48.608;11.436;2023-06-10T04:01:19;96933.06;;;14.84
78917;BMP280;68315;48.608;11.436;2023-06-10T04:03:46;96937.63;;;14.89
78917;BMP280;68315;48.608;11.436;2023-06-10T04:06:13;96933.00;;;14.92
78917;BMP280;68315;48.608;11.436;2023-06-10T04:08:39;96947.19;;;14.96
78917;BMP280;68315;48.608;11.436;2023-06-10T04:11:04;96937.00;;;14.98
78917;BMP280;68315;48.608;11.436;2023-06-10T04:13:29;96945.63;;;15.02
78917;BMP280;68315;48.608;11.436;2023-06-10T04:15:54;96933.56;;;15.07
78917;BMP280;68315;48.608;11.436;2023-06-10T04:18:20;96945.34;;;15.15
78917;BMP280;68315;48.608;11.436;2023-06-10T04:20:46;96944.34;;;15.20
78917;BMP280;68315;48.608;11.436;2023-06-10T04:23:15;96938.56;;;15.26
78917;BMP280;68315;48.608;11.436;2023-06-10T04:25:40;96946.75;;;15.33
78917;BMP280;68315;48.608;11.436;2023-06-10T04:28:05;96954.44;;;15.43
78917;BMP280;68315;48.608;11.436;2023-06-10T04:30:31;96951.56;;;15.50
78917;BMP280;68315;48.608;11.436;2023-06-10T04:32:57;96952.22;;;15.58
78917;BMP280;68315;48.608;11.436;2023-06-10T04:35:22;96954.19;;;15.65
78917;BMP280;68315;48.608;11.436;2023-06-10T04:37:47;96951.28;;;15.73
78917;BMP280;68315;48.608;11.436;2023-06-10T04:40:13;96949.91;;;15.81
78917;BMP280;68315;48.608;11.436;2023-06-10T04:42:39;96951.41;;;15.92
78917;BMP280;68315;48.608;11.436;2023-06-10T04:45:05;96952.97;;;16.02
78917;BMP280;68315;48.608;11.436;2023-06-10T04:47:30;96957.38;;;16.15
78917;BMP280;68315;48.608;11.436;2023-06-10T04:49:59;96944.31;;;16.25
78917;BMP280;68315;48.608;11.436;2023-06-10T04:52:24;96949.59;;;16.40
78917;BMP280;68315;48.608;11.436;2023-06-10T04:54:49;96957.56;;;16.53
78917;BMP280;68315;48.608;11.436;2023-06-10T04:57:15;96957.13;;;16.66
78917;BMP280;68315;48.608;11.436;2023-06-10T04:59:40;96959.22;;;16.75
78917;BMP280;68315;48.608;11.436;2023-06-10T05:02:05;96969.16;;;16.88
78917;BMP280;68315;48.608;11.436;2023-06-10T05:04:31;96963.06;;;16.99
78917;BMP280;68315;48.608;11.436;2023-06-10T05:06:56;96972.88;;;17.09
78917;BMP280;68315;48.608;11.436;2023-06-10T05:09:21;96965.28;;;17.19
78917;BMP280;68315;48.608;11.436;2023-06-10T05:11:47;96964.69;;;17.30
78917;BMP280;68315;48.608;11.436;2023-06-10T05:14:12;96970.84;;;17.38
78917;BMP280;68315;48.608;11.436;2023-06-10T05:16:38;96969.06;;;17.52
78917;BMP280;68315;48.608;11.436;2023-06-10T05:19:04;96970.09;;;17.67
78917;BMP280;68315;48.608;11.436;2023-06-10T05:21:29;96969.78;;;17.82
78917;BMP280;68315;48.608;11.436;2023-06-10T05:23:55;96975.59;;;17.95
78917;BMP280;68315;48.608;11.436;2023-06-10T05:26:20;96974.53;;;18.10
78917;BMP280;68315;48.608;11.436;2023-06-10T05:28:46;96967.91;;;18.24
78917;BMP280;68315;48.608;11.436;2023-06-10T05:31:11;96974.88;;;18.35
78917;BMP280;68315;48.608;11.436;2023-06-10T05:33:37;96971.47;;;18.46
78917;BMP280;68315;48.608;11.436;2023-06-10T05:36:02;96974.47;;;18.59
78917;BMP280;68315;48.608;11.436;2023-06-10T05:38:27;96978.94;;;18.74
78917;BMP280;68315;48.608;11.436;2023-06-10T05:40:53;96981.19;;;18.87
78917;BMP280;68315;48.608;11.436;2023-06-10T05:43:18;96976.44;;;18.99
78917;BMP280;68315;48.608;11.436;2023-06-10T05:45:43;96979.75;;;19.07
78917;BMP280;68315;48.608;11.436;2023-06-10T05:48:09;96972.75;;;19.18
78917;BMP280;68315;48.608;11.436;2023-06-10T05:50:34;96974.19;;;19.28
78917;BMP280;68315;48.608;11.436;2023-06-10T05:53:04;96976.28;;;19.39
78917;BMP280;68315;48.608;11.436;2023-06-10T05:55:29;96977.53;;;19.48
78917;BMP280;68315;48.608;11.436;2023-06-10T05:57:58;96981.41;;;19.54
78917;BMP280;68315;48.608;11.436;2023-06-10T06:00:24;96971.38;;;19.61
78917;BMP280;68315;48.608;11.436;2023-06-10T06:02:50;96980.38;;;19.71
78917;BMP280;68315;48.608;11.436;2023-06-10T06:05:17;96984.06;;;19.85
78917;BMP280;68315;48.608;11.436;2023-06-10T06:07:43;96975.22;;;20.00
78917;BMP280;68315;48.608;11.436;2023-06-10T06:10:08;96976.09;;;20.14
78917;BMP280;68315;48.608;11.436;2023-06-10T06:12:34;96964.94;;;20.26
78917;BMP280;68315;48.608;11.436;2023-06-10T06:14:59;96972.00;;;20.38
78917;BMP280;68315;48.608;11.436;2023-06-10T06:17:25;96971.25;;;20.49
78917;BMP280;68315;48.608;11.436;2023-06-10T06:19:52;96975.38;;;20.60
78917;BMP280;68315;48.608;11.436;2023-06-10T06:22:18;96976.34;;;20.64
78917;BMP280;68315;48.608;11.436;2023-06-10T06:24:49;96965.41;;;20.68
78917;BMP280;68315;48.608;11.436;2023-06-10T06:27:16;96974.34;;;20.78
78917;BMP280;68315;48.608;11.436;2023-06-10T06:29:41;96977.13;;;20.90
78917;BMP280;68315;48.608;11.436;2023-06-10T06:32:07;96975.88;;;21.04
78917;BMP280;68315;48.608;11.436;2023-06-10T06:34:53;96975.72;;;21.14
78917;BMP280;68315;48.608;11.436;2023-06-10T06:37:27;96969.38;;;21.25
78917;BMP280;68315;48.608;11.436;2023-06-10T06:39:53;96966.69;;;21.27
78917;BMP280;68315;48.608;11.436;2023-06-10T06:42:19;96969.34;;;21.37
78917;BMP280;68315;48.608;11.436;2023-06-10T06:44:45;96970.28;;;21.41
78917;BMP280;68315;48.608;11.436;2023-06-10T06:47:11;96975.31;;;21.56
78917;BMP280;68315;48.608;11.436;2023-06-10T06:49:36;96970.38;;;21.68
78917;BMP280;68315;48.608;11.436;2023-06-10T06:52:02;96968.00;;;21.76
78917;BMP280;68315;48.608;11.436;2023-06-10T06:54:27;96973.16;;;21.68
78917;BMP280;68315;48.608;11.436;2023-06-10T06:56:53;96972.97;;;21.64
78917;BMP280;68315;48.608;11.436;2023-06-10T06:59:19;96973.16;;;21.68
78917;BMP280;68315;48.608;11.436;2023-06-10T07:01:46;96969.56;;;21.79
78917;BMP280;68315;48.608;11.436;2023-06-10T07:04:14;96970.13;;;21.89
78917;BMP280;68315;48.608;11.436;2023-06-10T07:06:40;96978.22;;;21.97
78917;BMP280;68315;48.608;11.436;2023-06-10T07:09:05;96972.31;;;22.04
78917;BMP280;68315;48.608;11.436;2023-06-10T07:11:31;96972.38;;;22.18
78917;BMP280;68315;48.608;11.436;2023-06-10T07:13:57;96966.88;;;22.33
78917;BMP280;68315;48.608;11.436;2023-06-10T07:16:22;96970.50;;;22.22
78917;BMP280;68315;48.608;11.436;2023-06-10T07:18:48;96979.06;;;21.99
78917;BMP280;68315;48.608;11.436;2023-06-10T07:21:13;96969.28;;;21.87
78917;BMP280;68315;48.608;11.436;2023-06-10T07:23:41;96971.16;;;21.96
78917;BMP280;68315;48.608;11.436;2023-06-10T07:26:07;96976.50;;;22.03
78917;BMP280;68315;48.608;11.436;2023-06-10T07:28:32;96981.44;;;22.05
78917;BMP280;68315;48.608;11.436;2023-06-10T07:30:58;96978.44;;;22.01
78917;BMP280;68315;48.608;11.436;2023-06-10T07:33:23;96975.09;;;21.91
78917;BMP280;68315;48.608;11.436;2023-06-10T07:35:48;96981.50;;;21.93
78917;BMP280;68315;48.608;11.436;2023-06-10T07:38:14;96978.22;;;21.97
78917;BMP280;68315;48.608;11.436;2023-06-10T07:40:40;96971.81;;;22.08
78917;BMP280;68315;48.608;11.436;2023-06-10T07:43:05;96973.88;;;22.21
78917;BMP280;68315;48.608;11.436;2023-06-10T07:45:30;96979.94;;;22.42
78917;BMP280;68315;48.608;11.436;2023-06-10T07:47:56;96978.75;;;22.75
78917;BMP280;68315;48.608;11.436;2023-06-10T07:50:21;96970.31;;;23.02
78917;BMP280;68315;48.608;11.436;2023-06-10T07:52:46;96972.56;;;23.19
78917;BMP280;68315;48.608;11.436;2023-06-10T07:55:12;96973.69;;;23.27
78917;BMP280;68315;48.608;11.436;2023-06-10T07:57:37;96983.84;;;23.50
78917;BMP280;68315;48.608;11.436;2023-06-10T08:00:08;96982.63;;;23.68
78917;BMP280;68315;48.608;11.436;2023-06-10T08:02:33;96986.22;;;23.71
78917;BMP280;68315;48.608;11.436;2023-06-10T08:04:59;96981.53;;;23.75
78917;BMP280;68315;48.608;11.436;2023-06-10T08:07:24;96980.47;;;23.98
78917;BMP280;68315;48.608;11.436;2023-06-10T08:09:50;96977.94;;;24.20
78917;BMP280;68315;48.608;11.436;2023-06-10T08:12:16;96982.03;;;24.17
78917;BMP280;68315;48.608;11.436;2023-06-10T08:14:41;96974.84;;;24.14
78917;BMP280;68315;48.608;11.436;2023-06-10T08:17:06;96976.75;;;24.09
78917;BMP280;68315;48.608;11.436;2023-06-10T08:19:32;96975.22;;;24.06
78917;BMP280;68315;48.608;11.436;2023-06-10T08:21:57;96974.81;;;24.29
78917;BMP280;68315;48.608;11.436;2023-06-10T08:24:22;96973.75;;;24.36
78917;BMP280;68315;48.608;11.436;2023-06-10T08:26:48;96976.94;;;24.29
78917;BMP280;68315;48.608;11.436;2023-06-10T08:29:13;96983.25;;;24.14
78917;BMP280;68315;48.608;11.436;2023-06-10T08:31:42;96978.38;;;24.14
78917;BMP280;68315;48.608;11.436;2023-06-10T08:34:08;96985.72;;;24.06
78917;BMP280;68315;48.608;11.436;2023-06-10T08:36:33;96988.88;;;24.14
78917;BMP280;68315;48.608;11.436;2023-06-10T08:38:58;96980.16;;;24.39
78917;BMP280;68315;48.608;11.436;2023-06-10T08:41:25;96980.97;;;24.74
78917;BMP280;68315;48.608;11.436;2023-06-10T08:44:13;96976.22;;;25.12
78917;BMP280;68315;48.608;11.436;2023-06-10T08:46:45;96976.84;;;25.28
78917;BMP280;68315;48.608;11.436;2023-06-10T08:49:10;96984.09;;;25.15
78917;BMP280;68315;48.608;11.436;2023-06-10T08:51:41;96974.84;;;24.95
78917;BMP280;68315;48.608;11.436;2023-06-10T08:54:15;96970.31;;;24.88
78917;BMP280;68315;48.608;11.436;2023-06-10T08:56:49;96965.75;;;24.97
78917;BMP280;68315;48.608;11.436;2023-06-10T08:59:18;96976.41;;;24.83
78917;BMP280;68315;48.608;11.436;2023-06-10T09:01:45;96962.56;;;25.04
78917;BMP280;68315;48.608;11.436;2023-06-10T09:04:10;96965.50;;;25.43
78917;BMP280;68315;48.608;11.436;2023-06-10T09:06:37;96969.78;;;25.64
78917;BMP280;68315;48.608;11.436;2023-06-10T09:09:05;96961.75;;;25.74
78917;BMP280;68315;48.608;11.436;2023-06-10T09:11:31;96956.41;;;25.62
78917;BMP280;68315;48.608;11.436;2023-06-10T09:13:56;96949.53;;;25.50
78917;BMP280;68315;48.608;11.436;2023-06-10T09:16:22;96949.63;;;25.32
78917;BMP280;68315;48.608;11.436;2023-06-10T09:18:48;96960.03;;;25.30
78917;BMP280;68315;48.608;11.436;2023-06-10T09:21:13;96963.22;;;25.57
78917;BMP280;68315;48.608;11.436;2023-06-10T09:23:39;96957.94;;;25.85
78917;BMP280;68315;48.608;11.436;2023-06-10T09:26:08;96958.88;;;26.11
78917;BMP280;68315;48.608;11.436;2023-06-10T09:28:34;96955.47;;;26.15
78917;BMP280;68315;48.608;11.436;2023-06-10T09:31:04;96947.25;;;26.21
78917;BMP280;68315;48.608;11.436;2023-06-10T09:33:30;96957.38;;;26.08
78917;BMP280;68315;48.608;11.436;2023-06-10T09:36:23;96958.22;;;26.13
78917;BMP280;68315;48.608;11.436;2023-06-10T09:38:56;96952.13;;;26.40
78917;BMP280;68315;48.608;11.436;2023-06-10T09:41:21;96956.28;;;26.80
78917;BMP280;68315;48.608;11.436;2023-06-10T09:43:54;96951.69;;;27.12
78917;BMP280;68315;48.608;11.436;2023-06-10T09:46:21;96958.66;;;27.09
78917;BMP280;68315;48.608;11.436;2023-06-10T09:48:47;96953.66;;;26.86
78917;BMP280;68315;48.608;11.436;2023-06-10T09:51:14;96955.56;;;26.58
78917;BMP280;68315;48.608;11.436;2023-06-10T09:53:48;96951.84;;;26.32
78917;BMP280;68315;48.608;11.436;2023-06-10T09:56:14;96954.81;;;26.16
78917;BMP280;68315;48.608;11.436;2023-06-10T09:58:39;96956.03;;;26.11
78917;BMP280;68315;48.608;11.436;2023-06-10T10:01:09;96954.91;;;25.99
78917;BMP280;68315;48.608;11.436;2023-06-10T10:03:45;96948.75;;;25.85
78917;BMP280;68315;48.608;11.436;2023-06-10T10:06:14;96942.75;;;25.74
78917;BMP280;68315;48.608;11.436;2023-06-10T10:08:40;96954.63;;;25.91
78917;BMP280;68315;48.608;11.436;2023-06-10T10:11:05;96952.00;;;26.16
78917;BMP280;68315;48.608;11.436;2023-06-10T10:13:37;96956.91;;;26.35
78917;BMP280;68315;48.608;11.436;2023-06-10T10:16:11;96959.84;;;26.39
78917;BMP280;68315;48.608;11.436;2023-06-10T10:18:55;96954.72;;;26.34
78917;BMP280;68315;48.608;11.436;2023-06-10T10:21:27;96963.84;;;26.32
78917;BMP280;68315;48.608;11.436;2023-06-10T10:24:25;96964.06;;;26.19
78917;BMP280;68315;48.608;11.436;2023-06-10T10:26:50;96967.81;;;26.06
78917;BMP280;68315;48.608;11.436;2023-06-10T10:29:29;96966.41;;;26.05
78917;BMP280;68315;48.608;11.436;2023-06-10T10:32:04;96967.81;;;26.06
78917;BMP280;68315;48.608;11.436;2023-06-10T10:34:40;96966.00;;;25.95
78917;BMP280;68315;48.608;11.436;2023-06-10T10:37:06;96965.94;;;25.93
78917;BMP280;68315;48.608;11.436;2023-06-10T10:39:38;96966.38;;;25.85
78917;BMP280;68315;48.608;11.436;2023-06-10T10:42:04;96981.81;;;25.84
78917;BMP280;68315;48.608;11.436;2023-06-10T10:44:31;96982.97;;;25.77
78917;BMP280;68315;48.608;11.436;2023-06-10T10:46:58;96971.41;;;25.69
78917;BMP280;68315;48.608;11.436;2023-06-10T10:49:35;96975.19;;;25.58
78917;BMP280;68315;48.608;11.436;2023-06-10T10:52:02;96980.75;;;25.56
78917;BMP280;68315;48.608;11.436;2023-06-10T10:54:36;96983.91;;;25.46
78917;BMP280;68315;48.608;11.436;2023-06-10T10:59:57;96975.72;;;25.35
78917;BMP280;68315;48.608;11.436;2023-06-10T11:02:43;96985.50;;;25.34
78917;BMP280;68315;48.608;11.436;2023-06-10T11:05:16;96978.84;;;25.43
78917;BMP280;68315;48.608;11.436;2023-06-10T11:07:52;96988.84;;;25.46
78917;BMP280;68315;48.608;11.436;2023-06-10T11:10:28;96982.63;;;25.49
78917;BMP280;68315;48.608;11.436;2023-06-10T11:12:54;96987.03;;;25.54
78917;BMP280;68315;48.608;11.436;2023-06-10T11:15:23;96980.19;;;25.59
78917;BMP280;68315;48.608;11.436;2023-06-10T11:26:20;96983.75;;;25.79
78917;BMP280;68315;48.608;11.436;2023-06-10T11:34:23;96987.31;;;26.00
78917;BMP280;68315;48.608;11.436;2023-06-10T11:36:49;96980.47;;;26.05
78917;BMP280;68315;48.608;11.436;2023-06-10T11:39:15;96979.00;;;26.04
78917;BMP280;68315;48.608;11.436;2023-06-10T11:41:40;96981.88;;;26.06
78917;BMP280;68315;48.608;11.436;2023-06-10T11:44:13;96987.41;;;26.02
78917;BMP280;68315;48.608;11.436;2023-06-10T11:46:39;96983.28;;;26.05
78917;BMP280;68315;48.608;11.436;2023-06-10T11:49:05;96983.28;;;26.05
78917;BMP280;68315;48.608;11.436;2023-06-10T11:51:36;96981.69;;;26.19
78917;BMP280;68315;48.608;11.436;2023-06-10T11:56:31;96985.38;;;26.43
78917;BMP280;68315;48.608;11.436;2023-06-10T11:59:02;96977.03;;;26.47
78917;BMP280;68315;48.608;11.436;2023-06-10T12:01:30;96971.91;;;26.61
78917;BMP280;68315;48.608;11.436;2023-06-10T12:07:22;96967.72;;;27.29
78917;BMP280;68315;48.608;11.436;2023-06-10T12:09:58;96964.88;;;27.29
78917;BMP280;68315;48.608;11.436;2023-06-10T12:12:26;96962.09;;;27.07
78917;BMP280;68315;48.608;11.436;2023-06-10T12:15:00;96960.78;;;27.10
78917;BMP280;68315;48.608;11.436;2023-06-10T12:19:57;96961.34;;;26.83
78917;BMP280;68315;48.608;11.436;2023-06-10T12:22:23;96959.47;;;26.70
78917;BMP280;68315;48.608;11.436;2023-06-10T12:24:59;96959.44;;;26.68
78917;BMP280;68315;48.608;11.436;2023-06-10T12:27:25;96959.47;;;27.13
78917;BMP280;68315;48.608;11.436;2023-06-10T12:29:51;96960.19;;;27.59
78917;BMP280;68315;48.608;11.436;2023-06-10T12:32:19;96957.44;;;28.12
78917;BMP280;68315;48.608;11.436;2023-06-10T12:34:47;96965.53;;;28.51
78917;BMP280;68315;48.608;11.436;2023-06-10T12:37:13;96956.63;;;28.92
78917;BMP280;68315;48.608;11.436;2023-06-10T12:39:39;96947.41;;;29.21
78917;BMP280;68315;48.608;11.436;2023-06-10T12:42:05;96951.66;;;29.54
78917;BMP280;68315;48.608;11.436;2023-06-10T12:44:35;96945.81;;;29.79
78917;BMP280;68315;48.608;11.436;2023-06-10T12:47:09;96945.56;;;30.03
78917;BMP280;68315;48.608;11.436;2023-06-10T12:49:36;96936.84;;;30.30
78917;BMP280;68315;48.608;11.436;2023-06-10T12:52:01;96929.88;;;30.39
78917;BMP280;68315;48.608;11.436;2023-06-10T12:54:27;96930.88;;;30.14
78917;BMP280;68315;48.608;11.436;2023-06-10T12:56:52;96929.00;;;29.89
78917;BMP280;68315;48.608;11.436;2023-06-10T12:59:18;96935.81;;;29.76
78917;BMP280;68315;48.608;11.436;2023-06-10T13:01:44;96931.63;;;29.77
78917;BMP280;68315;48.608;11.436;2023-06-10T13:04:09;96939.34;;;29.75
78917;BMP280;68315;48.608;11.436;2023-06-10T13:06:35;96934.94;;;29.68
78917;BMP280;68315;48.608;11.436;2023-06-10T13:09:04;96920.44;;;29.87
78917;BMP280;68315;48.608;11.436;2023-06-10T13:11:31;96910.97;;;30.10
78917;BMP280;68315;48.608;11.436;2023-06-10T13:13:57;96916.38;;;29.96
78917;BMP280;68315;48.608;11.436;2023-06-10T13:16:22;96909.81;;;30.25
78917;BMP280;68315;48.608;11.436;2023-06-10T13:18:48;96901.13;;;30.59
78917;BMP280;68315;48.608;11.436;2023-06-10T13:21:13;96903.72;;;30.89
78917;BMP280;68315;48.608;11.436;2023-06-10T13:23:38;96919.69;;;31.16
78917;BMP280;68315;48.608;11.436;2023-06-10T13:26:04;96907.19;;;31.35
78917;BMP280;68315;48.608;11.436;2023-06-10T13:28:32;96913.22;;;31.07
78917;BMP280;68315;48.608;11.436;2023-06-10T13:31:01;96908.81;;;31.00
78917;BMP280;68315;48.608;11.436;2023-06-10T13:33:26;96898.47;;;31.21
78917;BMP280;68315;48.608;11.436;2023-06-10T13:35:52;96907.41;;;30.99
78917;BMP280;68315;48.608;11.436;2023-06-10T13:38:17;96902.16;;;30.80
78917;BMP280;68315;48.608;11.436;2023-06-10T13:40:42;96912.53;;;30.63
78917;BMP280;68315;48.608;11.436;2023-06-10T13:43:08;96910.22;;;30.51
78917;BMP280;68315;48.608;11.436;2023-06-10T13:45:34;96898.69;;;30.39
78917;BMP280;68315;48.608;11.436;2023-06-10T13:48:00;96910.97;;;30.10
78917;BMP280;68315;48.608;11.436;2023-06-10T13:50:26;96898.22;;;29.74
78917;BMP280;68315;48.608;11.436;2023-06-10T13:52:51;96904.94;;;29.21
78917;BMP280;68315;48.608;11.436;2023-06-10T13:55:17;96908.25;;;28.80
78917;BMP280;68315;48.608;11.436;2023-06-10T13:57:46;96900.47;;;28.49
78917;BMP280;68315;48.608;11.436;2023-06-10T14:00:12;96904.06;;;28.24
78917;BMP280;68315;48.608;11.436;2023-06-10T14:02:38;96899.22;;;28.01
78917;BMP280;68315;48.608;11.436;2023-06-10T14:05:04;96897.13;;;27.76
78917;BMP280;68315;48.608;11.436;2023-06-10T14:07:30;96905.22;;;27.62
78917;BMP280;68315;48.608;11.436;2023-06-10T14:09:59;96898.38;;;27.71
78917;BMP280;68315;48.608;11.436;2023-06-10T14:12:25;96896.25;;;28.23
78917;BMP280;68315;48.608;11.436;2023-06-10T14:14:50;96895.31;;;28.71
78917;BMP280;68315;48.608;11.436;2023-06-10T14:17:18;96894.25;;;29.18
78917;BMP280;68315;48.608;11.436;2023-06-10T14:19:43;96891.81;;;29.71
78917;BMP280;68315;48.608;11.436;2023-06-10T14:22:12;96894.09;;;30.20
78917;BMP280;68315;48.608;11.436;2023-06-10T14:24:39;96891.22;;;30.60